sensor_id;sensor_type;location;lat;lon;timestamp;P1;durP1;ratioP1;P2;durP2;ratioP2
53843;SDS011;39744;53.314;5.710;2023-07-13T00:02:15;10.02;;;1.92;;
53843;SDS011;39744;53.314;5.710;2023-07-13T00:04:41;6.35;;;2.00;;
53843;SDS011;39744;53.314;5.710;2023-07-13T00:07:08;6.10;;;1.58;;
53843;SDS011;39744;53.314;5.710;2023-07-13T00:09:34;8.52;;;2.30;;
53843;SDS011;39744;53.314;5.710;2023-07-13T00:12:02;8.52;;;1.98;;
53843;SDS011;39744;53.314;5.710;2023-07-13T00:14:28;7.35;;;2.38;;
53843;SDS011;39744;53.314;5.710;2023-07-13T00:16:54;8.40;;;2.00;;
53843;SDS011;39744;53.314;5.710;2023-07-13T00:19:21;10.68;;;2.10;;
53843;SDS011;39744;53.314;5.710;2023-07-13T00:21:47;5.20;;;1.77;;
53843;SDS011;39744;53.314;5.710;2023-07-13T00:24:14;9.23;;;1.70;;
53843;SDS011;39744;53.314;5.710;2023-07-13T00:26:42;8.98;;;1.70;;
53843;SDS011;39744;53.314;5.710;2023-07-13T00:29:11;9.38;;;1.75;;
53843;SDS011;39744;53.314;5.710;2023-07-13T00:31:38;4.05;;;1.42;;
53843;SDS011;39744;53.314;5.710;2023-07-13T00:34:04;5.43;;;1.35;;
53843;SDS011;39744;53.314;5.710;2023-07-13T00:36:30;3.97;;;1.20;;
53843;SDS011;39744;53.314;5.710;2023-07-13T00:38:56;7.68;;;1.50;;
53843;SDS011;39744;53.314;5.710;2023-07-13T00:41:23;5.97;;;1.50;;
53843;SDS011;39744;53.314;5.710;2023-07-13T00:43:49;4.85;;;1.25;;
53843;SDS011;39744;53.314;5.710;2023-07-13T00:46:22;5.05;;;1.20;;
53843;SDS011;39744;53.314;5.710;2023-07-13T00:48:50;5.95;;;1.30;;
53843;SDS011;39744;53.314;5.710;2023-07-13T00:51:17;7.07;;;1.58;;
53843;SDS011;39744;53.314;5.710;2023-07-13T00:53:44;5.78;;;1.35;;
53843;SDS011;39744;53.314;5.710;2023-07-13T00:56:11;9.75;;;2.10;;
53843;SDS011;39744;53.314;5.710;2023-07-13T00:58:37;9.88;;;1.70;;
53843;SDS011;39744;53.314;5.710;2023-07-13T01:01:03;9.73;;;1.65;;
53843;SDS011;39744;53.314;5.710;2023-07-13T01:03:29;6.50;;;1.50;;
53843;SDS011;39744;53.314;5.710;2023-07-13T01:05:55;4.82;;;1.20;;
53843;SDS011;39744;53.314;5.710;2023-07-13T01:08:22;4.43;;;1.40;;
53843;SDS011;39744;53.314;5.710;2023-07-13T01:10:52;6.78;;;1.50;;
53843;SDS011;39744;53.314;5.710;2023-07-13T01:13:18;7.20;;;1.92;;
53843;SDS011;39744;53.314;5.710;2023-07-13T01:15:48;8.43;;;1.60;;
53843;SDS011;39744;53.314;5.710;2023-07-13T01:18:16;10.45;;;1.70;;
53843;SDS011;39744;53.314;5.710;2023-07-13T01:20:53;7.00;;;1.45;;
53843;SDS011;39744;53.314;5.710;2023-07-13T01:23:19;4.00;;;1.30;;
53843;SDS011;39744;53.314;5.710;2023-07-13T01:25:46;6.50;;;1.33;;
53843;SDS011;39744;53.314;5.710;2023-07-13T01:28:12;9.05;;;1.45;;
53843;SDS011;39744;53.314;5.710;2023-07-13T01:30:39;9.32;;;1.85;;
53843;SDS011;39744;53.314;5.710;2023-07-13T01:33:08;11.38;;;2.40;;
53843;SDS011;39744;53.314;5.710;2023-07-13T01:35:35;11.00;;;2.30;;
53843;SDS011;39744;53.314;5.710;2023-07-13T01:38:01;11.70;;;2.40;;
53843;SDS011;39744;53.314;5.710;2023-07-13T01:40:28;9.32;;;2.50;;
53843;SDS011;39744;53.314;5.710;2023-07-13T01:42:55;8.93;;;2.13;;
53843;SDS011;39744;53.314;5.710;2023-07-13T01:45:21;10.18;;;2.30;;
53843;SDS011;39744;53.314;5.710;2023-07-13T01:47:47;14.38;;;2.38;;
53843;SDS011;39744;53.314;5.710;2023-07-13T01:50:13;9.00;;;2.47;;
53843;SDS011;39744;53.314;5.710;2023-07-13T01:52:39;12.00;;;2.53;;
53843;SDS011;39744;53.314;5.710;2023-07-13T01:55:05;10.23;;;2.60;;
53843;SDS011;39744;53.314;5.710;2023-07-13T01:57:31;10.27;;;2.30;;
53843;SDS011;39744;53.314;5.710;2023-07-13T01:59:58;10.27;;;2.58;;
53843;SDS011;39744;53.314;5.710;2023-07-13T02:02:24;11.25;;;2.40;;
53843;SDS011;39744;53.314;5.710;2023-07-13T02:04:50;12.10;;;2.75;;
53843;SDS011;39744;53.314;5.710;2023-07-13T02:07:16;12.13;;;2.35;;
53843;SDS011;39744;53.314;5.710;2023-07-13T02:09:42;12.10;;;2.78;;
53843;SDS011;39744;53.314;5.710;2023-07-13T02:12:08;10.63;;;2.30;;
53843;SDS011;39744;53.314;5.710;2023-07-13T02:14:34;14.20;;;3.03;;
53843;SDS011;39744;53.314;5.710;2023-07-13T02:17:00;9.00;;;2.70;;
53843;SDS011;39744;53.314;5.710;2023-07-13T02:19:26;13.32;;;2.97;;
53843;SDS011;39744;53.314;5.710;2023-07-13T02:21:53;12.40;;;2.40;;
53843;SDS011;39744;53.314;5.710;2023-07-13T02:24:19;11.35;;;2.78;;
53843;SDS011;39744;53.314;5.710;2023-07-13T02:26:46;13.05;;;2.72;;
53843;SDS011;39744;53.314;5.710;2023-07-13T02:29:12;15.48;;;3.00;;
53843;SDS011;39744;53.314;5.710;2023-07-13T02:31:39;11.48;;;3.15;;
53843;SDS011;39744;53.314;5.710;2023-07-13T02:34:05;8.13;;;2.72;;
53843;SDS011;39744;53.314;5.710;2023-07-13T02:36:31;10.75;;;2.95;;
53843;SDS011;39744;53.314;5.710;2023-07-13T02:39:00;11.13;;;3.53;;
53843;SDS011;39744;53.314;5.710;2023-07-13T02:41:26;11.38;;;2.78;;
53843;SDS011;39744;53.314;5.710;2023-07-13T02:43:52;11.95;;;3.42;;
53843;SDS011;39744;53.314;5.710;2023-07-13T02:46:18;13.82;;;3.00;;
53843;SDS011;39744;53.314;5.710;2023-07-13T02:48:44;11.52;;;2.80;;
53843;SDS011;39744;53.314;5.710;2023-07-13T02:51:11;15.82;;;3.20;;
53843;SDS011;39744;53.314;5.710;2023-07-13T02:53:37;12.35;;;3.00;;
53843;SDS011;39744;53.314;5.710;2023-07-13T02:56:04;9.63;;;2.95;;
53843;SDS011;39744;53.314;5.710;2023-07-13T02:58:30;13.68;;;3.25;;
53843;SDS011;39744;53.314;5.710;2023-07-13T03:00:57;13.13;;;3.00;;
53843;SDS011;39744;53.314;5.710;2023-07-13T03:03:23;12.75;;;3.40;;
53843;SDS011;39744;53.314;5.710;2023-07-13T03:05:57;12.82;;;3.45;;
53843;SDS011;39744;53.314;5.710;2023-07-13T03:08:25;16.25;;;3.30;;
53843;SDS011;39744;53.314;5.710;2023-07-13T03:13:46;11.60;;;3.53;;
53843;SDS011;39744;53.314;5.710;2023-07-13T03:16:13;15.15;;;3.45;;
53843;SDS011;39744;53.314;5.710;2023-07-13T03:18:41;13.93;;;3.45;;
53843;SDS011;39744;53.314;5.710;2023-07-13T03:21:07;11.30;;;3.38;;
53843;SDS011;39744;53.314;5.710;2023-07-13T03:23:33;12.93;;;3.58;;
53843;SDS011;39744;53.314;5.710;2023-07-13T03:26:18;16.70;;;3.33;;
53843;SDS011;39744;53.314;5.710;2023-07-13T03:28:44;12.32;;;3.33;;
53843;SDS011;39744;53.314;5.710;2023-07-13T03:31:15;11.48;;;2.97;;
53843;SDS011;39744;53.314;5.710;2023-07-13T03:33:42;12.25;;;2.97;;
53843;SDS011;39744;53.314;5.710;2023-07-13T03:36:10;21.85;;;3.60;;
53843;SDS011;39744;53.314;5.710;2023-07-13T03:38:37;16.30;;;3.53;;
53843;SDS011;39744;53.314;5.710;2023-07-13T03:41:03;10.93;;;3.08;;
53843;SDS011;39744;53.314;5.710;2023-07-13T03:43:29;11.07;;;3.42;;
53843;SDS011;39744;53.314;5.710;2023-07-13T03:45:55;9.10;;;2.85;;
53843;SDS011;39744;53.314;5.710;2023-07-13T03:48:21;11.88;;;3.10;;
53843;SDS011;39744;53.314;5.710;2023-07-13T03:50:48;12.05;;;3.28;;
53843;SDS011;39744;53.314;5.710;2023-07-13T03:53:17;12.30;;;3.42;;
53843;SDS011;39744;53.314;5.710;2023-07-13T03:55:44;13.73;;;3.17;;
53843;SDS011;39744;53.314;5.710;2023-07-13T04:00:55;9.45;;;3.10;;
53843;SDS011;39744;53.314;5.710;2023-07-13T04:03:22;12.07;;;3.00;;
53843;SDS011;39744;53.314;5.710;2023-07-13T04:05:48;9.82;;;3.00;;
53843;SDS011;39744;53.314;5.710;2023-07-13T04:08:14;12.68;;;3.03;;
53843;SDS011;39744;53.314;5.710;2023-07-13T04:10:40;11.48;;;2.85;;
53843;SDS011;39744;53.314;5.710;2023-07-13T04:13:06;12.90;;;3.45;;
53843;SDS011;39744;53.314;5.710;2023-07-13T04:15:33;12.35;;;3.10;;
53843;SDS011;39744;53.314;5.710;2023-07-13T04:17:59;14.27;;;3.10;;
53843;SDS011;39744;53.314;5.710;2023-07-13T04:20:25;8.73;;;2.70;;
53843;SDS011;39744;53.314;5.710;2023-07-13T04:22:52;11.20;;;2.78;;
53843;SDS011;39744;53.314;5.710;2023-07-13T04:25:19;7.50;;;2.38;;
53843;SDS011;39744;53.314;5.710;2023-07-13T04:27:45;9.82;;;2.65;;
53843;SDS011;39744;53.314;5.710;2023-07-13T04:30:11;9.48;;;2.50;;
53843;SDS011;39744;53.314;5.710;2023-07-13T04:32:37;7.38;;;2.47;;
53843;SDS011;39744;53.314;5.710;2023-07-13T04:35:03;7.85;;;2.38;;
53843;SDS011;39744;53.314;5.710;2023-07-13T04:37:29;7.47;;;2.05;;
53843;SDS011;39744;53.314;5.710;2023-07-13T04:39:55;8.73;;;1.80;;
53843;SDS011;39744;53.314;5.710;2023-07-13T04:42:22;7.63;;;1.85;;
53843;SDS011;39744;53.314;5.710;2023-07-13T04:44:48;6.43;;;2.00;;
53843;SDS011;39744;53.314;5.710;2023-07-13T04:47:15;7.43;;;1.73;;
53843;SDS011;39744;53.314;5.710;2023-07-13T04:49:41;6.00;;;1.92;;
53843;SDS011;39744;53.314;5.710;2023-07-13T04:52:07;8.63;;;2.22;;
53843;SDS011;39744;53.314;5.710;2023-07-13T04:54:34;4.82;;;1.65;;
53843;SDS011;39744;53.314;5.710;2023-07-13T04:57:00;5.75;;;2.20;;
53843;SDS011;39744;53.314;5.710;2023-07-13T04:59:26;6.45;;;1.70;;
53843;SDS011;39744;53.314;5.710;2023-07-13T05:01:53;7.07;;;1.80;;
53843;SDS011;39744;53.314;5.710;2023-07-13T05:04:19;6.43;;;2.30;;
53843;SDS011;39744;53.314;5.710;2023-07-13T05:06:45;4.35;;;1.73;;
53843;SDS011;39744;53.314;5.710;2023-07-13T05:09:11;8.15;;;2.13;;
53843;SDS011;39744;53.314;5.710;2023-07-13T05:11:37;5.75;;;1.70;;
53843;SDS011;39744;53.314;5.710;2023-07-13T05:14:04;5.38;;;1.80;;
53843;SDS011;39744;53.314;5.710;2023-07-13T05:16:30;4.90;;;1.65;;
53843;SDS011;39744;53.314;5.710;2023-07-13T05:18:57;6.47;;;2.15;;
53843;SDS011;39744;53.314;5.710;2023-07-13T05:21:23;5.95;;;1.80;;
53843;SDS011;39744;53.314;5.710;2023-07-13T05:23:50;5.97;;;1.67;;
53843;SDS011;39744;53.314;5.710;2023-07-13T05:26:16;7.97;;;1.98;;
53843;SDS011;39744;53.314;5.710;2023-07-13T05:28:42;7.85;;;1.85;;
53843;SDS011;39744;53.314;5.710;2023-07-13T05:31:09;7.47;;;2.00;;
53843;SDS011;39744;53.314;5.710;2023-07-13T05:33:35;7.80;;;1.90;;
53843;SDS011;39744;53.314;5.710;2023-07-13T05:36:01;8.38;;;2.42;;
53843;SDS011;39744;53.314;5.710;2023-07-13T05:38:27;7.80;;;1.80;;
53843;SDS011;39744;53.314;5.710;2023-07-13T05:40:54;7.13;;;1.80;;
53843;SDS011;39744;53.314;5.710;2023-07-13T05:43:21;9.15;;;2.08;;
53843;SDS011;39744;53.314;5.710;2023-07-13T05:45:47;5.70;;;1.83;;
53843;SDS011;39744;53.314;5.710;2023-07-13T05:48:14;5.28;;;1.60;;
53843;SDS011;39744;53.314;5.710;2023-07-13T05:50:40;7.80;;;1.85;;
53843;SDS011;39744;53.314;5.710;2023-07-13T05:53:06;6.65;;;1.75;;
53843;SDS011;39744;53.314;5.710;2023-07-13T05:55:32;9.68;;;1.80;;
53843;SDS011;39744;53.314;5.710;2023-07-13T05:57:59;5.72;;;1.80;;
53843;SDS011;39744;53.314;5.710;2023-07-13T06:00:25;8.90;;;1.80;;
53843;SDS011;39744;53.314;5.710;2023-07-13T06:02:51;5.32;;;1.80;;
53843;SDS011;39744;53.314;5.710;2023-07-13T06:05:17;5.85;;;2.08;;
53843;SDS011;39744;53.314;5.710;2023-07-13T06:07:44;8.10;;;1.95;;
53843;SDS011;39744;53.314;5.710;2023-07-13T06:10:10;5.55;;;1.92;;
53843;SDS011;39744;53.314;5.710;2023-07-13T06:12:36;7.55;;;1.95;;
53843;SDS011;39744;53.314;5.710;2023-07-13T06:15:02;5.82;;;1.50;;
53843;SDS011;39744;53.314;5.710;2023-07-13T06:17:29;4.50;;;1.70;;
53843;SDS011;39744;53.314;5.710;2023-07-13T06:19:55;4.93;;;1.35;;
53843;SDS011;39744;53.314;5.710;2023-07-13T06:22:21;5.88;;;1.58;;
53843;SDS011;39744;53.314;5.710;2023-07-13T06:24:47;6.05;;;1.80;;
53843;SDS011;39744;53.314;5.710;2023-07-13T06:27:13;5.60;;;1.75;;
53843;SDS011;39744;53.314;5.710;2023-07-13T06:29:39;4.85;;;1.80;;
53843;SDS011;39744;53.314;5.710;2023-07-13T06:32:05;5.40;;;1.50;;
53843;SDS011;39744;53.314;5.710;2023-07-13T06:34:32;6.68;;;1.65;;
53843;SDS011;39744;53.314;5.710;2023-07-13T06:36:58;6.43;;;1.88;;
53843;SDS011;39744;53.314;5.710;2023-07-13T06:39:24;5.43;;;1.90;;
53843;SDS011;39744;53.314;5.710;2023-07-13T06:41:50;8.48;;;1.65;;
53843;SDS011;39744;53.314;5.710;2023-07-13T06:44:16;4.00;;;1.65;;
53843;SDS011;39744;53.314;5.710;2023-07-13T06:46:42;6.28;;;1.73;;
53843;SDS011;39744;53.314;5.710;2023-07-13T06:49:09;6.30;;;1.60;;
53843;SDS011;39744;53.314;5.710;2023-07-13T06:51:35;5.38;;;1.38;;
53843;SDS011;39744;53.314;5.710;2023-07-13T06:54:01;6.10;;;1.50;;
53843;SDS011;39744;53.314;5.710;2023-07-13T06:56:27;4.65;;;1.60;;
53843;SDS011;39744;53.314;5.710;2023-07-13T06:58:53;5.38;;;1.60;;
53843;SDS011;39744;53.314;5.710;2023-07-13T07:01:19;4.80;;;1.33;;
53843;SDS011;39744;53.314;5.710;2023-07-13T07:03:45;3.83;;;1.70;;
53843;SDS011;39744;53.314;5.710;2023-07-13T07:06:13;5.30;;;1.50;;
53843;SDS011;39744;53.314;5.710;2023-07-13T07:08:40;4.55;;;1.35;;
53843;SDS011;39744;53.314;5.710;2023-07-13T07:11:08;6.43;;;1.40;;
53843;SDS011;39744;53.314;5.710;2023-07-13T07:13:34;4.88;;;1.40;;
53843;SDS011;39744;53.314;5.710;2023-07-13T07:16:00;7.75;;;1.90;;
53843;SDS011;39744;53.314;5.710;2023-07-13T07:18:26;5.57;;;1.55;;
53843;SDS011;39744;53.314;5.710;2023-07-13T07:20:52;5.18;;;1.60;;
53843;SDS011;39744;53.314;5.710;2023-07-13T07:23:18;6.75;;;1.50;;
53843;SDS011;39744;53.314;5.710;2023-07-13T07:25:44;5.97;;;1.60;;
53843;SDS011;39744;53.314;5.710;2023-07-13T07:28:11;5.55;;;1.40;;
53843;SDS011;39744;53.314;5.710;2023-07-13T07:30:37;8.20;;;1.80;;
53843;SDS011;39744;53.314;5.710;2023-07-13T07:33:07;6.30;;;1.40;;
53843;SDS011;39744;53.314;5.710;2023-07-13T07:35:33;5.97;;;1.67;;
53843;SDS011;39744;53.314;5.710;2023-07-13T07:37:59;7.60;;;1.67;;
53843;SDS011;39744;53.314;5.710;2023-07-13T07:40:25;3.20;;;1.40;;
53843;SDS011;39744;53.314;5.710;2023-07-13T07:42:51;5.82;;;1.85;;
53843;SDS011;39744;53.314;5.710;2023-07-13T07:45:18;7.18;;;1.52;;
53843;SDS011;39744;53.314;5.710;2023-07-13T07:47:44;7.47;;;1.85;;
53843;SDS011;39744;53.314;5.710;2023-07-13T07:50:10;6.95;;;2.05;;
53843;SDS011;39744;53.314;5.710;2023-07-13T07:52:36;6.35;;;1.85;;
53843;SDS011;39744;53.314;5.710;2023-07-13T07:55:03;6.80;;;1.88;;
53843;SDS011;39744;53.314;5.710;2023-07-13T07:57:29;11.23;;;2.42;;
53843;SDS011;39744;53.314;5.710;2023-07-13T07:59:56;5.35;;;1.98;;
53843;SDS011;39744;53.314;5.710;2023-07-13T08:02:22;8.63;;;2.20;;
53843;SDS011;39744;53.314;5.710;2023-07-13T08:04:48;9.10;;;1.92;;
53843;SDS011;39744;53.314;5.710;2023-07-13T08:07:14;5.53;;;1.50;;
53843;SDS011;39744;53.314;5.710;2023-07-13T08:09:40;7.25;;;1.95;;
53843;SDS011;39744;53.314;5.710;2023-07-13T08:12:06;7.57;;;2.15;;
53843;SDS011;39744;53.314;5.710;2023-07-13T08:14:32;4.65;;;1.70;;
53843;SDS011;39744;53.314;5.710;2023-07-13T08:16:58;5.70;;;1.90;;
53843;SDS011;39744;53.314;5.710;2023-07-13T08:19:24;7.75;;;1.88;;
53843;SDS011;39744;53.314;5.710;2023-07-13T08:21:50;6.57;;;1.55;;
53843;SDS011;39744;53.314;5.710;2023-07-13T08:24:16;6.00;;;1.58;;
53843;SDS011;39744;53.314;5.710;2023-07-13T08:26:44;6.55;;;1.70;;
53843;SDS011;39744;53.314;5.710;2023-07-13T08:29:11;7.97;;;1.75;;
53843;SDS011;39744;53.314;5.710;2023-07-13T08:31:37;5.35;;;1.58;;
53843;SDS011;39744;53.314;5.710;2023-07-13T08:34:03;4.47;;;1.35;;
53843;SDS011;39744;53.314;5.710;2023-07-13T08:36:29;4.28;;;1.40;;
53843;SDS011;39744;53.314;5.710;2023-07-13T08:38:55;8.88;;;2.10;;
53843;SDS011;39744;53.314;5.710;2023-07-13T08:41:23;6.65;;;1.70;;
53843;SDS011;39744;53.314;5.710;2023-07-13T08:43:50;8.10;;;1.92;;
53843;SDS011;39744;53.314;5.710;2023-07-13T08:46:24;7.15;;;1.50;;
53843;SDS011;39744;53.314;5.710;2023-07-13T08:48:56;9.48;;;1.70;;
53843;SDS011;39744;53.314;5.710;2023-07-13T08:51:28;7.27;;;1.70;;
53843;SDS011;39744;53.314;5.710;2023-07-13T08:53:57;3.80;;;1.30;;
53843;SDS011;39744;53.314;5.710;2023-07-13T08:56:28;5.82;;;1.48;;
53843;SDS011;39744;53.314;5.710;2023-07-13T08:59:03;5.22;;;1.30;;
53843;SDS011;39744;53.314;5.710;2023-07-13T09:01:35;6.38;;;1.65;;
53843;SDS011;39744;53.314;5.710;2023-07-13T09:04:09;5.82;;;1.20;;
53843;SDS011;39744;53.314;5.710;2023-07-13T09:06:59;3.90;;;1.25;;
53843;SDS011;39744;53.314;5.710;2023-07-13T09:09:35;4.55;;;1.40;;
53843;SDS011;39744;53.314;5.710;2023-07-13T09:14:41;4.93;;;1.30;;
53843;SDS011;39744;53.314;5.710;2023-07-13T09:17:11;4.10;;;1.20;;
53843;SDS011;39744;53.314;5.710;2023-07-13T09:19:38;3.97;;;1.25;;
53843;SDS011;39744;53.314;5.710;2023-07-13T09:22:06;7.40;;;1.60;;
53843;SDS011;39744;53.314;5.710;2023-07-13T09:27:03;4.07;;;1.52;;
53843;SDS011;39744;53.314;5.710;2023-07-13T09:29:35;5.53;;;1.20;;
53843;SDS011;39744;53.314;5.710;2023-07-13T09:32:04;3.25;;;1.20;;
53843;SDS011;39744;53.314;5.710;2023-07-13T09:34:32;4.90;;;1.35;;
53843;SDS011;39744;53.314;5.710;2023-07-13T09:36:58;3.28;;;1.10;;
53843;SDS011;39744;53.314;5.710;2023-07-13T09:39:26;5.03;;;1.50;;
53843;SDS011;39744;53.314;5.710;2023-07-13T09:44:43;5.50;;;1.20;;
53843;SDS011;39744;53.314;5.710;2023-07-13T09:47:16;5.10;;;1.60;;
53843;SDS011;39744;53.314;5.710;2023-07-13T09:49:43;3.72;;;1.27;;
53843;SDS011;39744;53.314;5.710;2023-07-13T09:52:15;4.55;;;1.38;;
53843;SDS011;39744;53.314;5.710;2023-07-13T09:54:45;7.83;;;1.60;;
53843;SDS011;39744;53.314;5.710;2023-07-13T09:57:22;5.15;;;1.60;;
53843;SDS011;39744;53.314;5.710;2023-07-13T09:59:50;4.05;;;1.30;;
53843;SDS011;39744;53.314;5.710;2023-07-13T10:02:27;5.80;;;1.70;;
53843;SDS011;39744;53.314;5.710;2023-07-13T10:04:57;4.25;;;1.35;;
53843;SDS011;39744;53.314;5.710;2023-07-13T10:07:24;7.85;;;1.70;;
53843;SDS011;39744;53.314;5.710;2023-07-13T10:09:57;5.85;;;1.80;;
53843;SDS011;39744;53.314;5.710;2023-07-13T10:12:26;6.55;;;2.05;;
53843;SDS011;39744;53.314;5.710;2023-07-13T10:14:54;7.35;;;1.92;;
53843;SDS011;39744;53.314;5.710;2023-07-13T10:17:26;5.20;;;1.98;;
53843;SDS011;39744;53.314;5.710;2023-07-13T10:19:55;5.07;;;1.55;;
53843;SDS011;39744;53.314;5.710;2023-07-13T10:22:27;7.65;;;1.70;;
53843;SDS011;39744;53.314;5.710;2023-07-13T10:24:55;7.45;;;2.35;;
53843;SDS011;39744;53.314;5.710;2023-07-13T10:27:29;7.50;;;2.10;;
53843;SDS011;39744;53.314;5.710;2023-07-13T10:30:00;4.43;;;1.65;;
53843;SDS011;39744;53.314;5.710;2023-07-13T10:32:27;4.82;;;2.08;;
53843;SDS011;39744;53.314;5.710;2023-07-13T10:34:53;7.80;;;2.05;;
53843;SDS011;39744;53.314;5.710;2023-07-13T10:37:26;6.65;;;1.77;;
53843;SDS011;39744;53.314;5.710;2023-07-13T10:39:53;5.80;;;2.03;;
53843;SDS011;39744;53.314;5.710;2023-07-13T10:42:39;7.30;;;2.03;;
53843;SDS011;39744;53.314;5.710;2023-07-13T10:45:14;5.78;;;1.80;;
53843;SDS011;39744;53.314;5.710;2023-07-13T10:47:41;5.20;;;1.60;;
53843;SDS011;39744;53.314;5.710;2023-07-13T10:50:08;5.32;;;2.08;;
53843;SDS011;39744;53.314;5.710;2023-07-13T10:52:55;7.20;;;2.10;;
53843;SDS011;39744;53.314;5.710;2023-07-13T10:58:20;9.45;;;2.28;;
53843;SDS011;39744;53.314;5.710;2023-07-13T11:03:17;8.45;;;1.92;;
53843;SDS011;39744;53.314;5.710;2023-07-13T11:05:44;8.68;;;2.28;;
53843;SDS011;39744;53.314;5.710;2023-07-13T11:10:47;5.85;;;2.47;;
53843;SDS011;39744;53.314;5.710;2023-07-13T11:16:00;6.70;;;2.10;;
53843;SDS011;39744;53.314;5.710;2023-07-13T11:18:26;8.88;;;2.40;;
53843;SDS011;39744;53.314;5.710;2023-07-13T11:20:52;6.10;;;2.17;;
53843;SDS011;39744;53.314;5.710;2023-07-13T11:23:37;6.00;;;2.22;;
53843;SDS011;39744;53.314;5.710;2023-07-13T11:26:36;4.72;;;2.10;;
53843;SDS011;39744;53.314;5.710;2023-07-13T11:28:53;9.32;;;2.08;;
53843;SDS011;39744;53.314;5.710;2023-07-13T11:31:19;9.07;;;2.22;;
53843;SDS011;39744;53.314;5.710;2023-07-13T11:33:52;4.88;;;1.70;;
53843;SDS011;39744;53.314;5.710;2023-07-13T11:36:19;7.32;;;1.60;;
53843;SDS011;39744;53.314;5.710;2023-07-13T11:41:35;5.60;;;2.20;;
53843;SDS011;39744;53.314;5.710;2023-07-13T11:44:08;6.95;;;2.17;;
53843;SDS011;39744;53.314;5.710;2023-07-13T11:46:36;4.53;;;1.80;;
53843;SDS011;39744;53.314;5.710;2023-07-13T11:49:04;5.90;;;2.03;;
53843;SDS011;39744;53.314;5.710;2023-07-13T11:51:32;7.47;;;2.05;;
53843;SDS011;39744;53.314;5.710;2023-07-13T11:54:03;6.53;;;1.75;;
53843;SDS011;39744;53.314;5.710;2023-07-13T11:56:30;6.57;;;1.88;;
53843;SDS011;39744;53.314;5.710;2023-07-13T11:59:02;8.15;;;2.03;;
53843;SDS011;39744;53.314;5.710;2023-07-13T12:01:30;8.60;;;2.17;;
53843;SDS011;39744;53.314;5.710;2023-07-13T12:03:57;8.55;;;2.00;;
53843;SDS011;39744;53.314;5.710;2023-07-13T12:06:31;10.88;;;2.38;;
53843;SDS011;39744;53.314;5.710;2023-07-13T12:08:59;6.82;;;2.55;;
53843;SDS011;39744;53.314;5.710;2023-07-13T12:11:26;8.45;;;2.10;;
53843;SDS011;39744;53.314;5.710;2023-07-13T12:13:52;10.05;;;2.40;;
53843;SDS011;39744;53.314;5.710;2023-07-13T12:16:27;8.02;;;1.95;;
53843;SDS011;39744;53.314;5.710;2023-07-13T12:18:54;8.65;;;2.30;;
53843;SDS011;39744;53.314;5.710;2023-07-13T12:21:22;10.00;;;2.53;;
53843;SDS011;39744;53.314;5.710;2023-07-13T12:23:49;8.73;;;2.33;;
53843;SDS011;39744;53.314;5.710;2023-07-13T12:26:17;7.90;;;2.33;;
53843;SDS011;39744;53.314;5.710;2023-07-13T12:28:47;14.32;;;2.72;;
53843;SDS011;39744;53.314;5.710;2023-07-13T12:31:30;8.43;;;2.30;;
53843;SDS011;39744;53.314;5.710;2023-07-13T12:33:58;11.98;;;2.60;;
53843;SDS011;39744;53.314;5.710;2023-07-13T12:36:25;8.85;;;2.30;;
53843;SDS011;39744;53.314;5.710;2023-07-13T12:38:51;8.30;;;2.70;;
53843;SDS011;39744;53.314;5.710;2023-07-13T12:41:17;6.22;;;2.00;;
53843;SDS011;39744;53.314;5.710;2023-07-13T12:43:43;8.18;;;2.20;;
53843;SDS011;39744;53.314;5.710;2023-07-13T12:46:18;9.55;;;2.47;;
53843;SDS011;39744;53.314;5.710;2023-07-13T12:48:47;10.65;;;3.08;;
53843;SDS011;39744;53.314;5.710;2023-07-13T12:51:13;9.48;;;2.60;;
53843;SDS011;39744;53.314;5.710;2023-07-13T12:53:41;8.40;;;3.00;;
53843;SDS011;39744;53.314;5.710;2023-07-13T12:56:08;8.48;;;2.53;;
53843;SDS011;39744;53.314;5.710;2023-07-13T12:58:38;8.48;;;2.30;;
53843;SDS011;39744;53.314;5.710;2023-07-13T13:01:07;5.45;;;2.40;;
53843;SDS011;39744;53.314;5.710;2023-07-13T13:03:34;7.13;;;2.30;;
53843;SDS011;39744;53.314;5.710;2023-07-13T13:06:05;7.07;;;2.42;;
53843;SDS011;39744;53.314;5.710;2023-07-13T13:08:32;8.50;;;2.30;;
53843;SDS011;39744;53.314;5.710;2023-07-13T13:10:58;6.20;;;2.47;;
53843;SDS011;39744;53.314;5.710;2023-07-13T13:13:25;6.15;;;2.22;;
53843;SDS011;39744;53.314;5.710;2023-07-13T13:15:51;7.90;;;2.40;;
53843;SDS011;39744;53.314;5.710;2023-07-13T13:18:21;6.95;;;2.30;;
53843;SDS011;39744;53.314;5.710;2023-07-13T13:20:48;9.07;;;2.85;;
53843;SDS011;39744;53.314;5.710;2023-07-13T13:23:15;8.95;;;2.90;;
53843;SDS011;39744;53.314;5.710;2023-07-13T13:25:43;8.63;;;2.60;;
53843;SDS011;39744;53.314;5.710;2023-07-13T13:28:16;11.52;;;3.13;;
53843;SDS011;39744;53.314;5.710;2023-07-13T13:30:44;10.60;;;3.13;;
53843;SDS011;39744;53.314;5.710;2023-07-13T13:33:11;7.82;;;2.63;;
53843;SDS011;39744;53.314;5.710;2023-07-13T13:35:38;7.45;;;2.90;;
53843;SDS011;39744;53.314;5.710;2023-07-13T13:38:09;8.48;;;3.20;;
53843;SDS011;39744;53.314;5.710;2023-07-13T13:40:37;8.98;;;2.97;;
53843;SDS011;39744;53.314;5.710;2023-07-13T13:43:04;6.68;;;2.65;;
53843;SDS011;39744;53.314;5.710;2023-07-13T13:45:30;10.45;;;3.00;;
53843;SDS011;39744;53.314;5.710;2023-07-13T13:47:57;9.23;;;2.92;;
53843;SDS011;39744;53.314;5.710;2023-07-13T13:50:23;10.75;;;3.28;;
53843;SDS011;39744;53.314;5.710;2023-07-13T13:52:50;8.35;;;2.67;;
53843;SDS011;39744;53.314;5.710;2023-07-13T13:55:21;8.20;;;2.65;;
53843;SDS011;39744;53.314;5.710;2023-07-13T13:57:49;10.10;;;2.97;;
53843;SDS011;39744;53.314;5.710;2023-07-13T14:00:16;8.93;;;2.60;;
53843;SDS011;39744;53.314;5.710;2023-07-13T14:02:44;6.95;;;2.47;;
53843;SDS011;39744;53.314;5.710;2023-07-13T14:05:13;14.10;;;3.08;;
53843;SDS011;39744;53.314;5.710;2023-07-13T14:07:39;8.95;;;2.63;;
53843;SDS011;39744;53.314;5.710;2023-07-13T14:10:10;11.18;;;2.70;;
53843;SDS011;39744;53.314;5.710;2023-07-13T14:12:36;11.45;;;2.90;;
53843;SDS011;39744;53.314;5.710;2023-07-13T14:15:03;11.02;;;3.08;;
53843;SDS011;39744;53.314;5.710;2023-07-13T14:17:29;12.80;;;3.42;;
53843;SDS011;39744;53.314;5.710;2023-07-13T14:19:55;10.60;;;2.58;;
53843;SDS011;39744;53.314;5.710;2023-07-13T14:22:23;9.63;;;2.67;;
53843;SDS011;39744;53.314;5.710;2023-07-13T14:24:50;6.65;;;2.40;;
53843;SDS011;39744;53.314;5.710;2023-07-13T14:27:16;9.95;;;2.92;;
53843;SDS011;39744;53.314;5.710;2023-07-13T14:29:42;9.00;;;2.58;;
53843;SDS011;39744;53.314;5.710;2023-07-13T14:32:10;6.82;;;2.70;;
53843;SDS011;39744;53.314;5.710;2023-07-13T14:34:36;9.98;;;2.60;;
53843;SDS011;39744;53.314;5.710;2023-07-13T14:37:03;7.45;;;2.63;;
53843;SDS011;39744;53.314;5.710;2023-07-13T14:39:29;10.27;;;2.80;;
53843;SDS011;39744;53.314;5.710;2023-07-13T14:41:55;6.05;;;2.35;;
53843;SDS011;39744;53.314;5.710;2023-07-13T14:44:24;11.68;;;2.75;;
53843;SDS011;39744;53.314;5.710;2023-07-13T14:46:50;8.75;;;2.20;;
53843;SDS011;39744;53.314;5.710;2023-07-13T14:51:47;6.05;;;2.20;;
53843;SDS011;39744;53.314;5.710;2023-07-13T14:54:13;6.45;;;2.38;;
53843;SDS011;39744;53.314;5.710;2023-07-13T14:56:40;6.65;;;2.42;;
53843;SDS011;39744;53.314;5.710;2023-07-13T14:59:06;9.43;;;2.90;;
53843;SDS011;39744;53.314;5.710;2023-07-13T15:01:33;9.57;;;2.63;;
53843;SDS011;39744;53.314;5.710;2023-07-13T15:04:00;11.40;;;3.00;;
53843;SDS011;39744;53.314;5.710;2023-07-13T15:06:26;6.25;;;2.50;;
53843;SDS011;39744;53.314;5.710;2023-07-13T15:08:53;6.72;;;2.50;;
53843;SDS011;39744;53.314;5.710;2023-07-13T15:11:20;9.15;;;2.72;;
53843;SDS011;39744;53.314;5.710;2023-07-13T15:13:47;14.07;;;3.10;;
53843;SDS011;39744;53.314;5.710;2023-07-13T15:16:17;8.20;;;2.53;;
53843;SDS011;39744;53.314;5.710;2023-07-13T15:18:44;8.07;;;2.22;;